createdAt,value
2022-10-18T00:02:16.189Z,94.70
2022-10-18T00:04:42.480Z,99.18
2022-10-18T00:07:08.726Z,104.93
2022-10-18T00:09:34.996Z,95.05
2022-10-18T00:12:01.260Z,99.20
2022-10-18T00:14:27.517Z,100.50
2022-10-18T00:16:53.771Z,97.75
2022-10-18T00:19:20.019Z,93.60
2022-10-18T00:21:46.278Z,92.05
2022-10-18T00:24:12.537Z,98.30
2022-10-18T00:26:38.818Z,98.32
2022-10-18T00:29:05.072Z,92.70
2022-10-18T00:31:31.338Z,100.32
2022-10-18T00:33:57.605Z,100.47
2022-10-18T00:36:23.872Z,94.35
2022-10-18T00:38:50.167Z,94.68
2022-10-18T00:41:16.583Z,93.68
2022-10-18T00:43:42.843Z,91.55
2022-10-18T00:46:09.099Z,92.90
2022-10-18T00:48:35.464Z,103.60
2022-10-18T00:51:01.727Z,94.75
2022-10-18T00:53:27.985Z,87.90
2022-10-18T00:55:54.230Z,84.82
2022-10-18T00:58:20.500Z,88.15
2022-10-18T01:00:46.764Z,98.32
2022-10-18T01:03:13.015Z,84.25
2022-10-18T01:05:39.302Z,86.70
2022-10-18T01:08:05.581Z,87.60
2022-10-18T01:10:31.887Z,111.40
2022-10-18T01:12:58.146Z,115.22
2022-10-18T01:15:24.407Z,97.00
2022-10-18T01:17:50.840Z,115.40
2022-10-18T01:20:17.103Z,134.80
2022-10-18T01:22:43.363Z,141.18
2022-10-18T01:25:09.622Z,134.75
2022-10-18T01:27:36.166Z,120.50
2022-10-18T01:30:02.472Z,104.55
2022-10-18T01:32:28.743Z,93.45
2022-10-18T01:34:55.006Z,102.78
2022-10-18T01:37:21.340Z,100.65
2022-10-18T01:39:47.914Z,115.28
2022-10-18T01:42:14.187Z,117.72
2022-10-18T01:44:40.446Z,145.77
2022-10-18T01:47:06.699Z,112.15
2022-10-18T01:49:33.376Z,119.55
2022-10-18T01:51:59.704Z,128.10
2022-10-18T01:54:25.986Z,120.60
2022-10-18T01:56:52.234Z,129.48
2022-10-18T01:59:18.516Z,107.57
2022-10-18T02:01:44.789Z,125.47
2022-10-18T02:04:11.035Z,102.72
2022-10-18T02:06:37.299Z,126.82
2022-10-18T02:09:03.572Z,147.30
2022-10-18T02:11:29.821Z,137.40
2022-10-18T02:13:56.098Z,142.05
2022-10-18T02:16:22.357Z,124.03
2022-10-18T02:18:48.635Z,143.73
2022-10-18T02:21:14.891Z,170.85
2022-10-18T02:23:41.147Z,164.35
2022-10-18T02:26:07.405Z,87.50
2022-10-18T02:28:33.677Z,94.22
2022-10-18T02:30:59.959Z,73.60
2022-10-18T02:33:26.219Z,71.38
2022-10-18T02:35:52.503Z,71.45
2022-10-18T02:38:18.737Z,72.45
2022-10-18T02:40:45.022Z,68.32
2022-10-18T02:43:11.303Z,67.03
2022-10-18T02:45:37.565Z,68.05
2022-10-18T02:48:03.826Z,86.45
2022-10-18T02:50:30.066Z,87.53
2022-10-18T02:52:56.312Z,85.18
2022-10-18T02:55:22.597Z,69.85
2022-10-18T02:57:48.884Z,84.68
2022-10-18T03:00:15.153Z,147.88
2022-10-18T03:02:41.401Z,179.48
2022-10-18T03:05:07.672Z,134.10
2022-10-18T03:07:34.195Z,161.38
2022-10-18T03:10:00.598Z,108.10
2022-10-18T03:12:26.847Z,87.32
2022-10-18T03:14:53.129Z,119.75
2022-10-18T03:17:19.393Z,127.72
2022-10-18T03:19:45.685Z,136.95
2022-10-18T03:22:11.950Z,129.73
2022-10-18T03:24:38.216Z,115.97
2022-10-18T03:27:04.478Z,131.07
2022-10-18T03:29:30.778Z,118.82
2022-10-18T03:31:57.030Z,120.10
2022-10-18T03:34:23.309Z,111.95
2022-10-18T03:36:49.643Z,139.93
2022-10-18T03:39:16.033Z,121.53
2022-10-18T03:41:42.314Z,120.50
2022-10-18T03:44:08.568Z,135.80
2022-10-18T03:46:34.841Z,137.73
2022-10-18T03:49:01.130Z,97.13
2022-10-18T03:51:27.432Z,101.93
2022-10-18T03:53:53.688Z,108.85
2022-10-18T03:56:19.968Z,114.25
2022-10-18T03:58:46.235Z,88.65
2022-10-18T04:01:12.597Z,103.20
2022-10-18T04:03:38.898Z,112.05
2022-10-18T04:06:05.220Z,116.30
2022-10-18T04:08:31.474Z,112.78
2022-10-18T04:10:57.774Z,115.57
2022-10-18T04:13:24.030Z,146.50
2022-10-18T04:15:50.311Z,146.93
2022-10-18T04:18:16.570Z,160.35
2022-10-18T04:20:42.825Z,144.07
2022-10-18T04:23:09.089Z,148.77
2022-10-18T04:25:35.371Z,148.48
2022-10-18T04:28:01.683Z,144.38
2022-10-18T04:30:27.936Z,149.55
2022-10-18T04:32:54.190Z,134.07
2022-10-18T04:35:24.323Z,144.93
2022-10-18T04:37:50.858Z,146.10
2022-10-18T04:40:17.125Z,143.98
2022-10-18T04:42:43.376Z,152.73
2022-10-18T04:45:09.631Z,155.07
2022-10-18T04:47:35.891Z,162.52
2022-10-18T04:50:02.148Z,152.07
2022-10-18T04:52:28.410Z,135.65
2022-10-18T04:54:54.667Z,110.13
2022-10-18T04:57:20.937Z,106.88
2022-10-18T04:59:47.212Z,106.95
2022-10-18T05:02:13.480Z,97.20
2022-10-18T05:04:39.739Z,107.15
2022-10-18T05:07:06.585Z,108.07
2022-10-18T05:09:32.858Z,112.20
2022-10-18T05:11:59.156Z,125.45
2022-10-18T05:14:25.410Z,137.82
2022-10-18T05:16:51.669Z,141.15
2022-10-18T05:19:17.986Z,139.13
2022-10-18T05:21:44.249Z,129.10
2022-10-18T05:24:10.498Z,119.30
2022-10-18T05:26:36.804Z,105.65
2022-10-18T05:29:03.115Z,98.45
2022-10-18T05:31:29.459Z,113.80
2022-10-18T05:33:55.744Z,123.80
2022-10-18T05:36:22.032Z,118.85
2022-10-18T05:38:48.360Z,114.60
2022-10-18T05:41:14.646Z,95.13
2022-10-18T05:43:40.955Z,85.40
2022-10-18T05:46:13.493Z,96.03
2022-10-18T05:48:41.333Z,100.63
2022-10-18T05:51:07.616Z,105.40
2022-10-18T05:53:37.999Z,129.27
2022-10-18T05:56:04.664Z,152.02
2022-10-18T05:58:30.927Z,117.97
2022-10-18T06:00:57.197Z,103.18
2022-10-18T06:03:23.443Z,94.15
2022-10-18T06:05:49.856Z,86.10
2022-10-18T06:08:16.122Z,85.72
2022-10-18T06:10:42.399Z,95.95
2022-10-18T06:13:08.654Z,91.75
2022-10-18T06:15:34.963Z,99.55
2022-10-18T06:18:01.206Z,107.60
2022-10-18T06:20:27.496Z,113.05
2022-10-18T06:22:53.781Z,111.47
2022-10-18T06:25:20.030Z,102.38
2022-10-18T06:27:46.335Z,107.80
2022-10-18T06:30:12.672Z,114.25
2022-10-18T06:32:38.914Z,119.05
2022-10-18T06:35:05.163Z,109.95
2022-10-18T06:37:31.704Z,124.00
2022-10-18T06:39:58.231Z,146.48
2022-10-18T06:42:24.491Z,151.68
2022-10-18T06:44:50.759Z,149.55
2022-10-18T06:47:17.047Z,123.13
2022-10-18T06:49:43.319Z,109.05
2022-10-18T06:52:09.581Z,97.10
2022-10-18T06:54:35.955Z,100.85
2022-10-18T06:57:02.671Z,83.68
2022-10-18T06:59:31.190Z,82.47
2022-10-18T07:01:57.928Z,83.78
2022-10-18T07:04:24.237Z,90.63
2022-10-18T07:06:50.486Z,90.78
2022-10-18T07:09:16.765Z,94.97
2022-10-18T07:11:43.013Z,94.97
2022-10-18T07:14:12.537Z,81.15
2022-10-18T07:16:41.863Z,96.80
2022-10-18T07:19:08.225Z,100.05
2022-10-18T07:21:34.467Z,82.00
2022-10-18T07:24:00.741Z,84.05
2022-10-18T07:26:27.273Z,85.97
2022-10-18T07:28:55.081Z,137.90
2022-10-18T07:31:21.416Z,140.55
2022-10-18T07:33:47.691Z,107.65
2022-10-18T07:36:13.971Z,97.93
2022-10-18T07:38:40.237Z,94.43
2022-10-18T07:41:06.866Z,115.75
2022-10-18T07:43:33.119Z,115.25
2022-10-18T07:45:59.401Z,89.65
2022-10-18T07:48:25.653Z,91.35
2022-10-18T07:50:51.911Z,115.72
2022-10-18T07:53:18.163Z,91.90
2022-10-18T07:55:44.720Z,90.95
2022-10-18T07:58:10.981Z,115.63
2022-10-18T08:00:37.231Z,107.53
2022-10-18T08:03:03.496Z,104.93
2022-10-18T08:05:29.905Z,109.10
2022-10-18T08:07:56.262Z,111.28
2022-10-18T08:10:22.518Z,85.25
2022-10-18T08:12:48.818Z,85.30
2022-10-18T08:15:15.077Z,93.72
2022-10-18T08:17:43.441Z,90.40
2022-10-18T08:20:12.255Z,87.72
2022-10-18T08:22:45.375Z,74.70
2022-10-18T08:25:11.636Z,78.95
2022-10-18T08:27:37.892Z,81.60
2022-10-18T08:30:04.147Z,88.80
2022-10-18T08:32:30.773Z,84.95
2022-10-18T08:34:57.202Z,100.78
2022-10-18T08:37:23.463Z,126.78
2022-10-18T08:39:49.710Z,109.97
2022-10-18T08:42:15.980Z,87.53
2022-10-18T08:44:42.224Z,94.15
2022-10-18T08:47:08.506Z,117.13
2022-10-18T08:49:34.850Z,95.63
2022-10-18T08:52:01.108Z,100.78
2022-10-18T08:54:27.398Z,123.70
2022-10-18T08:56:53.651Z,127.15
2022-10-18T08:59:23.286Z,135.75
2022-10-18T09:01:51.722Z,131.50
2022-10-18T09:04:17.975Z,120.57
2022-10-18T09:06:44.549Z,117.00
2022-10-18T09:09:10.809Z,134.90
2022-10-18T09:11:37.060Z,130.90
2022-10-18T09:14:03.371Z,114.63
2022-10-18T09:16:29.627Z,87.18
2022-10-18T09:18:57.259Z,86.07
2022-10-18T09:21:23.519Z,91.60
2022-10-18T09:23:49.820Z,91.57
2022-10-18T09:26:16.147Z,90.13
2022-10-18T09:28:42.469Z,89.40
2022-10-18T09:31:08.783Z,101.43
2022-10-18T09:33:35.069Z,107.28
2022-10-18T09:36:01.349Z,100.70
2022-10-18T09:38:27.666Z,165.38
2022-10-18T09:40:53.920Z,180.60
2022-10-18T09:43:20.199Z,120.72
2022-10-18T09:45:46.467Z,102.05
2022-10-18T09:48:12.756Z,88.80
2022-10-18T09:50:39.060Z,81.43
2022-10-18T09:53:06.393Z,96.53
2022-10-18T09:55:32.660Z,227.38
2022-10-18T09:57:58.940Z,217.90
2022-10-18T10:00:25.200Z,113.97
2022-10-18T10:02:51.494Z,74.55
2022-10-18T10:05:17.798Z,80.07
2022-10-18T10:07:44.070Z,81.88
2022-10-18T10:10:10.341Z,182.90
2022-10-18T10:12:36.630Z,239.88
2022-10-18T10:15:02.892Z,1999.90
2022-10-18T10:17:29.712Z,1999.90
2022-10-18T10:19:56.723Z,1999.90
2022-10-18T10:22:22.986Z,1999.90
2022-10-18T10:24:49.242Z,1999.90
2022-10-18T10:27:15.611Z,1999.90
2022-10-18T10:29:44.813Z,1999.90
2022-10-18T10:32:11.347Z,1999.90
2022-10-18T10:34:39.833Z,1999.90
2022-10-18T10:37:08.652Z,1999.90
2022-10-18T10:39:34.901Z,1999.90
2022-10-18T10:42:01.233Z,1999.90
2022-10-18T10:44:27.487Z,1999.90
2022-10-18T10:46:54.723Z,1999.90
2022-10-18T10:49:39.664Z,1999.90
2022-10-18T10:52:08.876Z,1999.90
2022-10-18T10:54:41.812Z,1999.90
2022-10-18T10:57:12.416Z,1999.90
2022-10-18T10:59:38.748Z,1999.90
2022-10-18T11:02:05.025Z,1999.90
2022-10-18T11:04:31.312Z,1999.90
2022-10-18T11:06:57.931Z,1999.90
2022-10-18T11:09:24.192Z,1999.90
2022-10-18T11:11:50.525Z,1999.90
2022-10-18T11:14:32.084Z,1999.90
2022-10-18T11:16:58.362Z,163.48
2022-10-18T11:19:26.406Z,248.15
2022-10-18T11:21:54.659Z,329.83
2022-10-18T11:24:20.917Z,251.00
2022-10-18T11:26:50.019Z,227.55
2022-10-18T11:29:19.826Z,229.52
2022-10-18T11:31:46.098Z,308.35
2022-10-18T11:34:12.348Z,234.77
2022-10-18T11:36:45.375Z,164.40
2022-10-18T11:39:22.778Z,149.18
2022-10-18T11:41:49.193Z,110.88
2022-10-18T11:44:15.464Z,120.32
2022-10-18T11:46:41.739Z,142.07
2022-10-18T11:49:08.008Z,181.35
2022-10-18T11:51:50.289Z,187.70
2022-10-18T11:54:20.756Z,167.95
2022-10-18T11:56:47.007Z,184.95
2022-10-18T11:59:13.305Z,169.77
2022-10-18T12:01:39.571Z,151.68
2022-10-18T12:04:05.879Z,136.50
2022-10-18T12:06:32.126Z,144.30
2022-10-18T12:08:59.490Z,146.65
2022-10-18T12:11:25.770Z,142.75
2022-10-18T12:13:52.070Z,135.45
2022-10-18T12:16:18.331Z,113.10
2022-10-18T12:18:44.616Z,113.45
2022-10-18T12:21:10.932Z,121.25
2022-10-18T12:23:37.272Z,124.43
2022-10-18T12:26:03.550Z,94.22
2022-10-18T12:28:29.892Z,97.35
2022-10-18T12:30:56.206Z,100.28
2022-10-18T12:33:28.385Z,108.68
2022-10-18T12:35:55.181Z,98.72
2022-10-18T12:38:21.472Z,112.70
2022-10-18T12:40:48.063Z,108.05
2022-10-18T12:43:14.371Z,134.38
2022-10-18T12:45:40.620Z,147.48
2022-10-18T12:48:06.899Z,161.98
2022-10-18T12:50:34.673Z,113.20
2022-10-18T12:53:00.921Z,200.77
2022-10-18T12:55:27.274Z,184.18
2022-10-18T12:57:53.565Z,190.30
2022-10-18T13:00:19.833Z,199.18
2022-10-18T13:02:46.082Z,218.75
2022-10-18T13:05:21.290Z,227.68
2022-10-18T13:07:58.599Z,245.95
2022-10-18T13:10:24.903Z,215.10
2022-10-18T13:12:51.186Z,217.68
2022-10-18T13:15:26.993Z,192.55
2022-10-18T13:17:54.023Z,197.60
2022-10-18T13:20:25.993Z,226.65
2022-10-18T13:22:52.947Z,167.68
2022-10-18T13:25:19.211Z,175.95
2022-10-18T13:27:45.862Z,174.60
2022-10-18T13:30:12.330Z,191.40
2022-10-18T13:32:38.575Z,203.80
2022-10-18T13:35:04.847Z,210.10
2022-10-18T13:37:31.145Z,191.48
2022-10-18T13:39:57.426Z,156.70
2022-10-18T13:42:23.684Z,204.50
2022-10-18T13:44:49.997Z,232.18
2022-10-18T13:47:16.295Z,280.40
2022-10-18T13:49:42.542Z,241.68
2022-10-18T13:52:08.822Z,237.05
2022-10-18T13:54:35.084Z,142.32
2022-10-18T13:57:01.414Z,135.80
2022-10-18T13:59:27.705Z,128.02
2022-10-18T14:01:54.058Z,111.93
2022-10-18T14:04:20.369Z,111.75
2022-10-18T14:06:46.637Z,132.98
2022-10-18T14:09:25.750Z,174.05
2022-10-18T14:11:59.716Z,134.52
2022-10-18T14:14:26.594Z,134.20
2022-10-18T14:16:52.866Z,149.85
2022-10-18T14:19:19.127Z,156.82
2022-10-18T14:21:45.392Z,170.18
2022-10-18T14:24:11.666Z,133.45
2022-10-18T14:29:09.158Z,145.00
2022-10-18T14:31:35.529Z,133.85
2022-10-18T14:34:01.863Z,158.30
2022-10-18T14:36:28.193Z,173.45
2022-10-18T14:38:54.460Z,191.85
2022-10-18T14:41:20.723Z,203.07
2022-10-18T14:43:48.228Z,248.68
2022-10-18T14:46:14.503Z,187.65
2022-10-18T14:48:40.958Z,229.63
2022-10-18T14:51:07.219Z,124.53
2022-10-18T14:53:35.828Z,180.60
2022-10-18T14:56:04.022Z,147.50
2022-10-18T14:58:30.300Z,162.75
2022-10-18T15:00:56.660Z,110.85
2022-10-18T15:03:23.024Z,117.78
2022-10-18T15:05:49.283Z,119.03
2022-10-18T15:08:15.546Z,179.88
2022-10-18T15:10:41.798Z,174.85
2022-10-18T15:13:10.481Z,188.15
2022-10-18T15:15:37.300Z,278.83
2022-10-18T15:18:05.165Z,173.95
2022-10-18T15:20:31.860Z,182.15
2022-10-18T15:22:58.119Z,202.38
2022-10-18T15:25:27.938Z,196.52
2022-10-18T15:27:57.710Z,179.38
2022-10-18T15:30:24.497Z,203.75
2022-10-18T15:32:50.764Z,244.23
2022-10-18T15:35:18.503Z,250.90
2022-10-18T15:37:47.305Z,208.25
2022-10-18T15:40:13.778Z,245.13
2022-10-18T15:42:40.075Z,254.60
2022-10-18T15:45:06.344Z,183.50
2022-10-18T15:47:32.897Z,268.25
2022-10-18T15:49:59.365Z,243.55
2022-10-18T15:52:25.632Z,281.75
2022-10-18T15:54:51.903Z,156.02
2022-10-18T15:57:18.183Z,176.80
2022-10-18T15:59:44.448Z,259.95
2022-10-18T16:02:10.712Z,498.13
2022-10-18T16:04:36.972Z,348.42
2022-10-18T16:07:03.347Z,217.20
2022-10-18T16:09:29.597Z,226.43
2022-10-18T16:11:57.408Z,324.48
2022-10-18T16:16:50.016Z,286.08
2022-10-18T16:19:18.559Z,232.65
2022-10-18T16:21:44.813Z,240.50
2022-10-18T16:24:11.064Z,246.43
2022-10-18T16:26:37.340Z,241.82
2022-10-18T16:29:03.657Z,342.70
2022-10-18T16:31:30.041Z,312.90
2022-10-18T16:33:56.321Z,366.42
2022-10-18T16:36:22.616Z,386.33
2022-10-18T16:38:48.904Z,391.58
2022-10-18T16:41:15.811Z,428.52
2022-10-18T16:43:42.131Z,411.95
2022-10-18T16:46:08.444Z,400.00
2022-10-18T16:48:34.789Z,293.75
2022-10-18T16:51:01.052Z,162.10
2022-10-18T16:53:27.894Z,129.52
2022-10-18T16:55:54.456Z,138.88
2022-10-18T16:58:20.853Z,129.13
2022-10-18T17:00:47.192Z,125.25
2022-10-18T17:03:13.447Z,104.00
2022-10-18T17:05:39.728Z,103.05
2022-10-18T17:08:05.971Z,103.10
2022-10-18T17:10:32.254Z,107.90
2022-10-18T17:12:58.572Z,115.72
2022-10-18T17:15:24.831Z,119.70
2022-10-18T17:17:51.127Z,115.93
2022-10-18T17:20:17.454Z,97.72
2022-10-18T17:22:43.715Z,100.35
2022-10-18T17:25:09.975Z,93.25
2022-10-18T17:27:36.256Z,90.43
2022-10-18T17:30:02.498Z,87.95
2022-10-18T17:32:28.796Z,79.80
2022-10-18T17:34:55.043Z,78.03
2022-10-18T17:37:21.295Z,78.88
2022-10-18T17:39:47.591Z,74.82
2022-10-18T17:42:13.854Z,76.43
2022-10-18T17:44:40.116Z,77.82
2022-10-18T17:47:06.405Z,80.20
2022-10-18T17:49:32.686Z,89.85
2022-10-18T17:52:01.158Z,104.43
2022-10-18T17:54:30.732Z,123.22
2022-10-18T17:56:57.003Z,140.52
2022-10-18T17:59:23.289Z,139.65
2022-10-18T18:01:49.559Z,148.27
2022-10-18T18:04:16.976Z,137.90
2022-10-18T18:06:45.267Z,122.00
2022-10-18T18:09:11.510Z,152.38
2022-10-18T18:11:37.974Z,144.80
2022-10-18T18:14:08.813Z,91.90
2022-10-18T18:16:35.356Z,67.05
2022-10-18T18:19:04.022Z,71.18
2022-10-18T18:21:31.368Z,68.53
2022-10-18T18:23:57.615Z,74.72
2022-10-18T18:26:23.915Z,82.43
2022-10-18T18:28:50.328Z,69.45
2022-10-18T18:31:16.687Z,72.07
2022-10-18T18:33:42.951Z,72.97
2022-10-18T18:36:09.265Z,66.32
2022-10-18T18:38:35.511Z,72.13
2022-10-18T18:41:01.768Z,68.03
2022-10-18T18:43:28.074Z,85.40
2022-10-18T18:45:54.402Z,99.43
2022-10-18T18:48:20.816Z,99.05
2022-10-18T18:50:51.750Z,102.85
2022-10-18T18:53:18.003Z,99.40
2022-10-18T18:55:44.303Z,111.32
2022-10-18T18:58:10.575Z,116.10
2022-10-18T19:00:40.393Z,75.90
2022-10-18T19:03:10.112Z,104.07
2022-10-18T19:05:36.507Z,86.75
2022-10-18T19:08:02.750Z,89.05
2022-10-18T19:10:29.007Z,90.25
2022-10-18T19:12:55.258Z,104.68
2022-10-18T19:15:21.507Z,150.55
2022-10-18T19:17:47.792Z,147.65
2022-10-18T19:20:15.184Z,95.40
2022-10-18T19:22:41.473Z,106.75
2022-10-18T19:25:07.898Z,117.65
2022-10-18T19:27:34.409Z,120.82
2022-10-18T19:30:01.014Z,120.80
2022-10-18T19:34:58.458Z,102.05
2022-10-18T19:37:24.716Z,115.43
2022-10-18T19:39:50.995Z,126.28
2022-10-18T19:42:20.513Z,103.32
2022-10-18T19:44:50.492Z,102.88
2022-10-18T19:47:16.747Z,97.95
2022-10-18T19:49:43.125Z,91.95
2022-10-18T19:52:09.378Z,78.15
2022-10-18T19:54:35.702Z,83.78
2022-10-18T19:57:01.947Z,82.03
2022-10-18T19:59:28.239Z,76.63
2022-10-18T20:01:54.571Z,90.03
2022-10-18T20:04:20.828Z,90.68
2022-10-18T20:06:47.712Z,95.18
2022-10-18T20:09:17.676Z,90.18
2022-10-18T20:11:46.765Z,106.53
2022-10-18T20:14:13.030Z,115.30
2022-10-18T20:16:39.351Z,115.30
2022-10-18T20:19:05.708Z,124.03
2022-10-18T20:21:35.399Z,111.85
2022-10-18T20:24:01.656Z,108.25
2022-10-18T20:26:27.918Z,100.82
2022-10-18T20:28:58.060Z,95.13
2022-10-18T20:31:24.567Z,81.53
2022-10-18T20:33:50.817Z,90.03
2022-10-18T20:36:17.072Z,74.70
2022-10-18T20:38:43.332Z,73.00
2022-10-18T20:41:09.575Z,67.68
2022-10-18T20:43:35.846Z,72.03
2022-10-18T20:46:02.101Z,69.95
2022-10-18T20:48:28.351Z,74.07
2022-10-18T20:50:54.600Z,80.47
2022-10-18T20:53:22.204Z,93.18
2022-10-18T20:55:48.496Z,91.22
2022-10-18T20:58:14.743Z,79.63
2022-10-18T21:00:40.996Z,88.88
2022-10-18T21:03:07.406Z,127.20
2022-10-18T21:05:33.720Z,157.32
2022-10-18T21:07:59.990Z,122.05
2022-10-18T21:10:26.242Z,156.45
2022-10-18T21:12:52.499Z,146.20
2022-10-18T21:15:18.750Z,170.93
2022-10-18T21:17:44.998Z,136.05
2022-10-18T21:20:11.264Z,117.35
2022-10-18T21:22:37.525Z,98.05
2022-10-18T21:25:03.771Z,84.32
2022-10-18T21:27:30.058Z,89.22
2022-10-18T21:29:56.302Z,88.25
2022-10-18T21:32:22.546Z,88.65
2022-10-18T21:34:48.791Z,103.88
2022-10-18T21:37:15.068Z,108.75
2022-10-18T21:39:42.230Z,143.88
2022-10-18T21:42:08.733Z,174.98
2022-10-18T21:44:35.001Z,167.75
2022-10-18T21:47:01.266Z,161.75
2022-10-18T21:49:29.040Z,117.40
2022-10-18T21:51:55.293Z,145.73
2022-10-18T21:54:21.542Z,107.10
2022-10-18T21:56:47.812Z,158.45
2022-10-18T21:59:14.084Z,118.35
2022-10-18T22:01:40.339Z,131.48
2022-10-18T22:04:06.632Z,198.52
2022-10-18T22:09:04.829Z,191.60
2022-10-18T22:11:31.070Z,208.00
2022-10-18T22:13:57.388Z,226.02
2022-10-18T22:16:23.659Z,215.90
2022-10-18T22:18:49.924Z,126.10
2022-10-18T22:21:16.263Z,116.72
2022-10-18T22:23:42.532Z,143.05
2022-10-18T22:26:08.865Z,149.48
2022-10-18T22:28:35.153Z,148.93
2022-10-18T22:31:01.451Z,157.77
2022-10-18T22:33:27.748Z,156.98
2022-10-18T22:35:54.049Z,112.15
2022-10-18T22:38:20.297Z,103.65
2022-10-18T22:40:46.647Z,141.05
2022-10-18T22:43:12.907Z,156.50
2022-10-18T22:45:39.187Z,241.80
2022-10-18T22:48:05.442Z,242.15
2022-10-18T22:50:31.719Z,167.05
2022-10-18T22:52:57.980Z,163.65
2022-10-18T22:55:24.245Z,211.48
2022-10-18T22:57:50.496Z,306.25
2022-10-18T23:00:16.749Z,152.15
2022-10-18T23:02:43.040Z,152.98
2022-10-18T23:05:09.299Z,81.47
2022-10-18T23:07:35.622Z,92.28
2022-10-18T23:10:01.884Z,78.35
2022-10-18T23:12:28.156Z,155.70
2022-10-18T23:14:54.418Z,109.55
2022-10-18T23:17:20.680Z,81.05
2022-10-18T23:19:46.921Z,77.75
2022-10-18T23:22:14.883Z,83.85
2022-10-18T23:27:07.321Z,85.70
2022-10-18T23:29:33.576Z,103.50
2022-10-18T23:31:59.878Z,81.68
2022-10-18T23:34:26.129Z,91.78
2022-10-18T23:36:52.416Z,97.32
2022-10-18T23:39:18.673Z,74.15
2022-10-18T23:41:44.928Z,88.00
2022-10-18T23:44:11.433Z,99.70
2022-10-18T23:46:37.683Z,88.55
2022-10-18T23:49:03.981Z,88.85
2022-10-18T23:51:30.387Z,72.70
2022-10-18T23:53:56.655Z,78.28
2022-10-18T23:56:22.906Z,86.28
2022-10-18T23:58:49.349Z,89.55
